createdAt,value
2022-11-10T00:01:08.883Z,27.47
2022-11-10T00:03:59.547Z,26.77
2022-11-10T00:06:49.211Z,27.07
2022-11-10T00:09:38.211Z,27.23
2022-11-10T00:12:25.229Z,27.27
2022-11-10T00:15:31.121Z,27.60
2022-11-10T00:18:18.819Z,28.37
2022-11-10T00:21:09.137Z,28.10
2022-11-10T00:23:56.248Z,27.60
2022-11-10T00:26:44.543Z,27.73
2022-11-10T00:29:34.139Z,27.80
2022-11-10T00:32:20.701Z,28.40
2022-11-10T00:35:08.119Z,28.67
2022-11-10T00:37:55.282Z,28.13
2022-11-10T00:40:42.276Z,28.00
2022-11-10T00:43:31.169Z,28.27
2022-11-10T00:46:21.235Z,28.30
2022-11-10T00:49:10.275Z,28.23
2022-11-10T00:51:56.561Z,28.53
2022-11-10T00:54:43.885Z,28.30
2022-11-10T00:57:30.767Z,28.80
2022-11-10T01:00:21.451Z,28.60
2022-11-10T01:03:09.035Z,28.57
2022-11-10T01:05:56.277Z,27.63
2022-11-10T01:08:43.725Z,28.20
2022-11-10T01:11:30.873Z,28.70
2022-11-10T01:14:17.569Z,29.67
2022-11-10T01:17:06.248Z,28.87
2022-11-10T01:19:53.298Z,28.37
2022-11-10T01:22:40.687Z,28.43
2022-11-10T01:25:28.277Z,28.67
2022-11-10T01:28:15.291Z,27.67
2022-11-10T01:31:09.525Z,29.07
2022-11-10T01:34:00.245Z,29.03
2022-11-10T01:36:50.178Z,29.07
2022-11-10T01:39:37.242Z,28.20
2022-11-10T01:42:27.179Z,28.97
2022-11-10T01:45:50.418Z,28.57
2022-11-10T01:48:45.266Z,28.63
2022-11-10T01:51:41.294Z,28.70
2022-11-10T01:54:33.295Z,26.77
2022-11-10T01:57:22.312Z,28.63
2022-11-10T02:00:10.236Z,28.67
2022-11-10T02:03:03.186Z,29.17
2022-11-10T02:05:52.285Z,29.57
2022-11-10T02:08:44.739Z,29.07
2022-11-10T02:11:37.232Z,28.53
2022-11-10T02:14:25.704Z,29.60
2022-11-10T02:17:13.539Z,28.63
2022-11-10T02:20:02.186Z,29.23
2022-11-10T02:22:50.422Z,29.70
2022-11-10T02:25:36.957Z,29.00
2022-11-10T02:28:24.369Z,28.87
2022-11-10T02:34:23.639Z,29.43
2022-11-10T02:37:10.802Z,29.17
2022-11-10T02:39:59.287Z,29.63
2022-11-10T02:42:46.199Z,30.47
2022-11-10T02:45:32.628Z,29.10
2022-11-10T02:48:20.224Z,30.13
2022-11-10T02:51:07.308Z,29.53
2022-11-10T02:53:57.947Z,31.00
2022-11-10T02:56:49.329Z,28.77
2022-11-10T02:59:36.364Z,30.63
2022-11-10T03:02:25.486Z,28.63
2022-11-10T03:05:16.370Z,28.97
2022-11-10T03:08:03.985Z,29.83
2022-11-10T03:10:55.256Z,29.83
2022-11-10T03:14:01.041Z,29.60
2022-11-10T03:16:52.861Z,29.00
2022-11-10T03:19:39.547Z,28.97
2022-11-10T03:22:28.209Z,29.93
2022-11-10T03:25:15.256Z,27.83
2022-11-10T03:28:02.113Z,28.93
2022-11-10T03:30:50.317Z,30.10
2022-11-10T03:33:36.730Z,30.17
2022-11-10T03:36:23.958Z,28.90
2022-11-10T03:39:11.311Z,29.40
2022-11-10T03:41:58.230Z,28.80
2022-11-10T03:44:45.341Z,29.60
2022-11-10T03:47:39.382Z,28.10
2022-11-10T03:50:26.311Z,29.73
2022-11-10T03:53:16.366Z,30.70
2022-11-10T03:56:03.257Z,29.73
2022-11-10T03:58:50.247Z,30.87
2022-11-10T04:01:37.367Z,31.03
2022-11-10T04:04:45.616Z,30.90
2022-11-10T04:07:50.464Z,31.10
2022-11-10T04:10:38.357Z,30.40
2022-11-10T04:13:43.157Z,31.10
2022-11-10T04:16:30.350Z,31.47
2022-11-10T04:19:17.053Z,31.10
2022-11-10T04:22:08.333Z,30.27
2022-11-10T04:24:58.380Z,31.20
2022-11-10T04:27:45.247Z,30.77
2022-11-10T04:30:32.113Z,32.37
2022-11-10T04:33:19.564Z,31.77
2022-11-10T04:36:08.329Z,30.73
2022-11-10T04:38:59.512Z,31.93
2022-11-10T04:41:47.013Z,30.53
2022-11-10T04:44:35.679Z,31.80
2022-11-10T04:47:21.943Z,32.63
2022-11-10T04:50:10.357Z,32.80
2022-11-10T04:52:56.835Z,32.07
2022-11-10T04:55:47.382Z,31.30
2022-11-10T04:58:36.934Z,33.53
2022-11-10T05:01:26.418Z,32.00
2022-11-10T05:04:13.213Z,32.70
2022-11-10T05:06:59.629Z,33.17
2022-11-10T05:09:50.437Z,34.13
2022-11-10T05:12:38.297Z,34.30
2022-11-10T05:15:25.814Z,32.87
2022-11-10T05:18:12.403Z,35.10
2022-11-10T05:20:59.338Z,35.40
2022-11-10T05:23:46.662Z,34.33
2022-11-10T05:26:34.197Z,34.47
2022-11-10T05:29:21.761Z,35.83
2022-11-10T05:32:08.158Z,34.93
2022-11-10T05:34:54.640Z,35.13
2022-11-10T05:37:41.616Z,35.90
2022-11-10T05:40:32.000Z,36.20
2022-11-10T05:43:26.664Z,36.43
2022-11-10T05:46:14.470Z,36.37
2022-11-10T05:49:00.769Z,35.73
2022-11-10T05:51:47.608Z,35.73
2022-11-10T05:54:34.038Z,37.50
2022-11-10T05:57:23.325Z,35.87
2022-11-10T06:00:11.136Z,36.67
2022-11-10T06:03:01.045Z,35.40
2022-11-10T06:05:47.929Z,35.93
2022-11-10T06:08:34.576Z,34.97
2022-11-10T06:11:21.506Z,35.70
2022-11-10T06:14:15.269Z,36.67
2022-11-10T06:17:01.722Z,37.00
2022-11-10T06:19:50.446Z,35.97
2022-11-10T06:22:36.867Z,35.53
2022-11-10T06:25:23.359Z,35.03
2022-11-10T06:28:11.485Z,37.00
2022-11-10T06:30:59.407Z,36.67
2022-11-10T06:33:46.084Z,36.40
2022-11-10T06:36:33.568Z,36.50
2022-11-10T06:39:21.451Z,33.77
2022-11-10T06:42:07.726Z,35.63
2022-11-10T06:44:55.275Z,34.60
2022-11-10T06:47:42.002Z,35.37
2022-11-10T06:50:29.242Z,34.73
2022-11-10T06:53:18.448Z,35.03
2022-11-10T06:56:09.470Z,35.30
2022-11-10T06:58:59.507Z,35.37
2022-11-10T07:01:46.060Z,35.77
2022-11-10T07:04:32.976Z,32.60
2022-11-10T07:07:19.258Z,34.07
2022-11-10T07:10:08.005Z,34.93
2022-11-10T07:13:02.442Z,34.40
2022-11-10T07:15:51.590Z,34.00
2022-11-10T07:18:38.485Z,32.23
2022-11-10T07:21:25.480Z,33.47
2022-11-10T07:24:11.942Z,33.30
2022-11-10T07:27:00.267Z,34.53
2022-11-10T07:29:47.209Z,34.30
2022-11-10T07:32:34.072Z,33.93
2022-11-10T07:35:22.450Z,33.77
2022-11-10T07:38:10.956Z,32.83
2022-11-10T07:40:58.427Z,33.37
2022-11-10T07:43:47.323Z,33.17
2022-11-10T07:46:38.445Z,32.63
2022-11-10T07:49:25.464Z,32.67
2022-11-10T07:52:11.785Z,33.23
2022-11-10T07:54:58.722Z,33.03
2022-11-10T07:57:47.573Z,31.43
2022-11-10T08:00:36.452Z,31.23
2022-11-10T08:03:24.694Z,31.77
2022-11-10T08:06:11.788Z,31.93
2022-11-10T08:08:58.692Z,30.73
2022-11-10T08:11:45.358Z,30.53
2022-11-10T08:14:32.374Z,30.97
2022-11-10T08:17:20.189Z,32.37
2022-11-10T08:20:09.207Z,31.87
2022-11-10T08:22:59.838Z,31.83
2022-11-10T08:25:46.842Z,32.30
2022-11-10T08:28:35.013Z,32.00
2022-11-10T08:31:21.344Z,29.13
2022-11-10T08:34:09.873Z,31.70
2022-11-10T08:36:56.251Z,31.77
2022-11-10T08:39:43.240Z,29.97
2022-11-10T08:42:30.025Z,32.20
2022-11-10T08:45:19.493Z,29.90
2022-11-10T08:48:08.713Z,31.53
2022-11-10T08:51:00.490Z,30.97
2022-11-10T08:53:47.454Z,31.77
2022-11-10T08:56:33.740Z,30.80
2022-11-10T08:59:24.108Z,31.93
2022-11-10T09:02:12.459Z,32.77
2022-11-10T09:04:59.563Z,29.63
2022-11-10T09:07:49.364Z,32.50
2022-11-10T09:10:38.479Z,32.63
2022-11-10T09:13:29.978Z,30.70
2022-11-10T09:16:18.101Z,31.53
2022-11-10T09:19:05.474Z,31.77
2022-11-10T09:21:51.847Z,31.80
2022-11-10T09:24:40.667Z,32.37
2022-11-10T09:27:27.403Z,32.03
2022-11-10T09:30:17.938Z,33.07
2022-11-10T09:33:04.850Z,33.23
2022-11-10T09:35:57.467Z,31.17
2022-11-10T09:38:44.256Z,32.73
2022-11-10T09:41:32.489Z,31.33
2022-11-10T09:44:24.498Z,30.20
2022-11-10T09:47:18.967Z,31.33
2022-11-10T09:50:23.001Z,28.87
2022-11-10T09:53:16.409Z,29.80
2022-11-10T09:56:05.508Z,28.87
2022-11-10T09:58:54.496Z,28.73
2022-11-10T10:01:49.456Z,28.53
2022-11-10T10:04:57.684Z,28.07
2022-11-10T10:07:53.420Z,28.23
2022-11-10T10:10:44.616Z,29.23
2022-11-10T10:13:56.388Z,28.27
2022-11-10T10:16:52.512Z,26.90
2022-11-10T10:19:46.571Z,29.10
2022-11-10T10:22:49.017Z,28.30
2022-11-10T10:25:39.864Z,27.53
2022-11-10T10:28:30.603Z,27.23
2022-11-10T10:31:21.402Z,26.77
2022-11-10T10:34:14.514Z,26.53
2022-11-10T10:37:00.913Z,26.37
2022-11-10T10:39:53.012Z,34.47
2022-11-10T10:42:39.999Z,29.87
2022-11-10T10:45:29.077Z,25.37
2022-11-10T10:48:31.623Z,24.27
2022-11-10T10:51:32.519Z,25.37
2022-11-10T10:54:28.601Z,23.60
2022-11-10T10:57:23.715Z,24.37
2022-11-10T11:00:21.615Z,25.77
2022-11-10T11:03:15.564Z,24.03
2022-11-10T11:06:06.265Z,22.93
2022-11-10T11:09:03.617Z,23.70
2022-11-10T11:12:02.356Z,24.03
2022-11-10T11:14:48.911Z,22.53
2022-11-10T11:17:35.703Z,20.47
2022-11-10T11:20:30.531Z,22.60
2022-11-10T11:23:38.691Z,21.33
2022-11-10T11:26:41.456Z,21.20
2022-11-10T11:29:52.549Z,18.30
2022-11-10T11:33:05.518Z,18.20
2022-11-10T11:35:59.293Z,19.73
2022-11-10T11:38:55.271Z,19.47
2022-11-10T11:41:51.806Z,19.93
2022-11-10T11:44:59.488Z,20.33
2022-11-10T11:48:01.511Z,20.03
2022-11-10T11:50:56.084Z,19.10
2022-11-10T11:53:59.116Z,18.73
2022-11-10T11:56:50.956Z,16.87
2022-11-10T11:59:59.524Z,17.83
2022-11-10T12:02:59.546Z,17.47
2022-11-10T12:05:55.687Z,17.70
2022-11-10T12:08:53.362Z,16.03
2022-11-10T12:12:01.527Z,16.70
2022-11-10T12:14:55.204Z,16.83
2022-11-10T12:17:51.550Z,15.13
2022-11-10T12:20:49.579Z,16.10
2022-11-10T12:23:44.099Z,16.20
2022-11-10T12:26:42.343Z,16.40
2022-11-10T12:29:37.128Z,15.20
2022-11-10T12:32:27.352Z,15.07
2022-11-10T12:35:19.015Z,15.20
2022-11-10T12:38:09.343Z,15.40
2022-11-10T12:41:04.571Z,14.93
2022-11-10T12:44:04.007Z,14.20
2022-11-10T12:46:56.832Z,14.27
2022-11-10T12:49:54.100Z,14.20
2022-11-10T12:52:47.654Z,13.70
2022-11-10T12:55:39.642Z,13.17
2022-11-10T12:58:28.762Z,13.20
2022-11-10T13:01:19.516Z,12.20
2022-11-10T13:04:11.490Z,10.70
2022-11-10T13:07:01.390Z,10.80
2022-11-10T13:09:48.586Z,11.43
2022-11-10T13:12:35.575Z,11.13
2022-11-10T13:15:48.563Z,10.57
2022-11-10T13:19:01.149Z,11.17
2022-11-10T13:22:11.177Z,11.90
2022-11-10T13:25:31.697Z,10.80
2022-11-10T13:28:56.619Z,11.10
2022-11-10T13:31:54.515Z,11.47
2022-11-10T13:34:41.532Z,11.03
2022-11-10T13:37:50.793Z,10.93
2022-11-10T13:40:44.410Z,10.67
2022-11-10T13:43:31.655Z,10.70
2022-11-10T13:46:19.583Z,10.90
2022-11-10T13:49:39.505Z,11.73
2022-11-10T13:52:35.580Z,12.20
2022-11-10T13:55:42.465Z,11.50
2022-11-10T13:58:33.163Z,10.80
2022-11-10T14:01:33.015Z,10.37
2022-11-10T14:04:42.987Z,10.43
2022-11-10T14:07:32.582Z,11.97
2022-11-10T14:10:28.640Z,11.73
2022-11-10T14:13:20.042Z,11.50
2022-11-10T14:16:17.552Z,11.23
2022-11-10T14:19:19.489Z,12.33
2022-11-10T14:22:16.854Z,11.60
2022-11-10T14:25:08.633Z,11.80
2022-11-10T14:27:58.745Z,11.53
2022-11-10T14:30:54.507Z,11.10
2022-11-10T14:33:41.628Z,11.07
2022-11-10T14:36:27.891Z,10.83
2022-11-10T14:39:18.369Z,10.73
2022-11-10T14:42:06.489Z,10.10
2022-11-10T14:45:08.864Z,11.40
2022-11-10T14:47:57.602Z,10.33
2022-11-10T14:50:44.252Z,11.10
2022-11-10T14:53:38.571Z,10.70
2022-11-10T14:56:33.384Z,11.03
2022-11-10T14:59:21.710Z,10.90
2022-11-10T15:02:15.036Z,10.77
2022-11-10T15:05:02.401Z,11.17
2022-11-10T15:07:52.575Z,13.30
2022-11-10T15:10:47.824Z,18.30
2022-11-10T15:13:38.196Z,11.97
2022-11-10T15:16:27.398Z,11.30
2022-11-10T15:19:27.624Z,11.83
2022-11-10T15:22:19.639Z,11.33
2022-11-10T15:25:16.655Z,11.87
2022-11-10T15:28:18.539Z,12.63
2022-11-10T15:31:09.531Z,12.30
2022-11-10T15:33:58.185Z,12.10
2022-11-10T15:36:45.589Z,13.33
2022-11-10T15:39:32.407Z,12.93
2022-11-10T15:42:21.544Z,13.03
2022-11-10T15:45:09.697Z,13.73
2022-11-10T15:47:58.572Z,13.53
2022-11-10T15:50:50.253Z,14.77
2022-11-10T15:53:40.699Z,14.60
2022-11-10T15:56:31.470Z,15.53
2022-11-10T15:59:18.444Z,15.50
2022-11-10T16:02:10.538Z,15.43
2022-11-10T16:05:00.106Z,15.13
2022-11-10T16:07:47.686Z,15.93
2022-11-10T16:10:38.445Z,17.30
2022-11-10T16:13:27.609Z,16.60
2022-11-10T16:16:16.528Z,17.17
2022-11-10T16:19:03.803Z,16.33
2022-11-10T16:21:51.700Z,16.53
2022-11-10T16:24:40.031Z,15.87
2022-11-10T16:27:29.368Z,16.13
2022-11-10T16:30:16.687Z,15.77
2022-11-10T16:33:03.067Z,16.80
2022-11-10T16:35:51.866Z,17.27
2022-11-10T16:38:39.824Z,16.97
2022-11-10T16:41:26.774Z,17.53
2022-11-10T16:44:14.286Z,15.27
2022-11-10T16:47:00.746Z,16.53
2022-11-10T16:49:49.165Z,16.20
2022-11-10T16:52:35.650Z,16.67
2022-11-10T16:55:24.167Z,17.50
2022-11-10T16:58:10.606Z,18.40
2022-11-10T17:01:03.686Z,17.07
2022-11-10T17:03:53.585Z,17.50
2022-11-10T17:06:40.377Z,16.13
2022-11-10T17:09:27.285Z,16.50
2022-11-10T17:12:17.094Z,17.33
2022-11-10T17:15:03.676Z,17.20
2022-11-10T17:17:54.321Z,16.67
2022-11-10T17:20:43.809Z,17.17
2022-11-10T17:23:30.840Z,15.87
2022-11-10T17:26:19.181Z,15.10
2022-11-10T17:29:07.184Z,16.20
2022-11-10T17:31:54.160Z,16.50
2022-11-10T17:34:40.808Z,14.37
2022-11-10T17:37:27.698Z,15.33
2022-11-10T17:40:20.374Z,15.53
2022-11-10T17:43:07.159Z,15.20
2022-11-10T17:45:58.474Z,15.60
2022-11-10T17:48:47.009Z,16.07
2022-11-10T17:51:34.797Z,15.33
2022-11-10T17:54:22.453Z,15.47
2022-11-10T17:57:11.068Z,15.50
2022-11-10T17:59:58.249Z,16.07
2022-11-10T18:02:52.528Z,16.17
2022-11-10T18:05:41.619Z,16.43
2022-11-10T18:08:33.065Z,16.43
2022-11-10T18:11:20.207Z,19.33
2022-11-10T18:14:07.061Z,20.13
2022-11-10T18:16:53.697Z,18.87
2022-11-10T18:19:42.688Z,18.50
2022-11-10T18:22:29.290Z,18.50
2022-11-10T18:25:16.292Z,18.63
2022-11-10T18:28:02.915Z,18.53
2022-11-10T18:30:49.755Z,18.77
2022-11-10T18:33:38.117Z,19.70
2022-11-10T18:36:26.067Z,20.30
2022-11-10T18:39:12.594Z,23.80
2022-11-10T18:41:58.851Z,22.87
2022-11-10T18:44:45.278Z,21.20
2022-11-10T18:47:33.282Z,19.90
2022-11-10T18:50:20.525Z,21.17
2022-11-10T18:53:08.300Z,22.87
2022-11-10T18:55:55.683Z,22.73
2022-11-10T18:58:42.294Z,22.30
2022-11-10T19:01:30.380Z,21.03
2022-11-10T19:04:16.963Z,19.80
2022-11-10T19:07:03.379Z,19.33
2022-11-10T19:09:51.716Z,19.83
2022-11-10T19:12:38.593Z,19.57
2022-11-10T19:15:26.559Z,18.83
2022-11-10T19:18:12.914Z,19.30
2022-11-10T19:20:59.396Z,18.87
2022-11-10T19:23:46.085Z,18.27
2022-11-10T19:26:34.840Z,19.77
2022-11-10T19:29:22.417Z,19.00
2022-11-10T19:32:09.354Z,20.07
2022-11-10T19:34:55.831Z,19.80
2022-11-10T19:37:42.217Z,20.33
2022-11-10T19:40:28.790Z,22.37
2022-11-10T19:43:18.633Z,20.07
2022-11-10T19:46:06.702Z,19.50
2022-11-10T19:48:54.478Z,20.30
2022-11-10T19:51:41.489Z,18.87
2022-11-10T19:54:28.128Z,20.57
2022-11-10T19:57:14.633Z,18.83
2022-11-10T20:00:02.355Z,18.57
2022-11-10T20:02:48.970Z,19.10
2022-11-10T20:05:35.268Z,17.37
2022-11-10T20:08:21.788Z,18.27
2022-11-10T20:11:10.783Z,18.20
2022-11-10T20:13:59.403Z,18.80
2022-11-10T20:16:47.422Z,19.17
2022-11-10T20:19:41.197Z,19.07
2022-11-10T20:22:28.089Z,20.50
2022-11-10T20:25:14.926Z,19.90
2022-11-10T20:28:03.542Z,18.73
2022-11-10T20:30:49.982Z,18.00
2022-11-10T20:33:39.030Z,19.60
2022-11-10T20:36:33.965Z,19.50
2022-11-10T20:39:20.746Z,19.20
2022-11-10T20:42:07.244Z,20.10
2022-11-10T20:44:54.024Z,18.57
2022-11-10T20:47:42.687Z,19.60
2022-11-10T20:50:30.594Z,20.10
2022-11-10T20:53:17.111Z,19.00
2022-11-10T20:56:04.635Z,19.83
2022-11-10T20:58:52.370Z,20.13
2022-11-10T21:01:39.356Z,19.90
2022-11-10T21:04:26.230Z,20.07
2022-11-10T21:07:14.190Z,19.03
2022-11-10T21:10:00.826Z,21.03
2022-11-10T21:12:52.966Z,19.43
2022-11-10T21:15:42.604Z,19.53
2022-11-10T21:18:32.181Z,20.17
2022-11-10T21:21:34.080Z,19.97
2022-11-10T21:24:24.098Z,19.47
2022-11-10T21:27:11.604Z,20.03
2022-11-10T21:29:59.699Z,20.23
2022-11-10T21:32:46.803Z,20.70
2022-11-10T21:35:38.137Z,20.97
2022-11-10T21:38:26.458Z,21.57
2022-11-10T21:41:21.326Z,22.47
2022-11-10T21:44:08.053Z,21.07
2022-11-10T21:46:56.905Z,21.17
2022-11-10T21:49:43.291Z,21.33
2022-11-10T21:52:33.717Z,24.17
2022-11-10T21:55:20.281Z,24.33
2022-11-10T21:58:08.817Z,23.80
2022-11-10T22:01:03.392Z,22.07
2022-11-10T22:03:50.806Z,21.73
2022-11-10T22:06:56.073Z,22.23
2022-11-10T22:10:00.783Z,22.70
2022-11-10T22:13:09.104Z,21.73
2022-11-10T22:16:15.747Z,22.87
2022-11-10T22:19:02.879Z,21.97
2022-11-10T22:21:49.937Z,22.10
2022-11-10T22:24:40.528Z,21.70
2022-11-10T22:27:28.782Z,21.90
2022-11-10T22:30:19.815Z,20.80
2022-11-10T22:33:25.021Z,20.37
2022-11-10T22:36:17.180Z,19.77
2022-11-10T22:39:07.842Z,20.47
2022-11-10T22:42:17.136Z,26.97
2022-11-10T22:45:06.292Z,21.47
2022-11-10T22:48:13.432Z,21.37
2022-11-10T22:51:02.596Z,19.73
2022-11-10T22:53:53.121Z,19.70
2022-11-10T22:56:43.452Z,20.40
2022-11-10T22:59:34.855Z,19.80
2022-11-10T23:02:21.813Z,20.00
2022-11-10T23:05:09.925Z,19.67
2022-11-10T23:07:57.910Z,19.10
2022-11-10T23:10:50.484Z,18.70
2022-11-10T23:13:41.768Z,19.23
2022-11-10T23:16:34.039Z,19.10
2022-11-10T23:19:26.968Z,18.60
2022-11-10T23:22:14.741Z,18.23
2022-11-10T23:25:02.571Z,16.47
2022-11-10T23:27:49.864Z,23.87
2022-11-10T23:30:39.944Z,23.40
2022-11-10T23:36:37.900Z,19.20
2022-11-10T23:39:27.022Z,19.70
2022-11-10T23:45:32.863Z,19.67
2022-11-10T23:48:33.855Z,19.20
2022-11-10T23:51:20.752Z,19.37
2022-11-10T23:54:08.323Z,17.77
2022-11-10T23:56:54.793Z,18.17
2022-11-10T23:59:42.860Z,18.17
